sensor_id;sensor_type;location;lat;lon;timestamp;temperature;humidity
19847;DHT22;10084;50.518;8.588;2023-07-13T00:01:29;21.70;48.10
19847;DHT22;10084;50.518;8.588;2023-07-13T00:03:56;21.60;48.00
19847;DHT22;10084;50.518;8.588;2023-07-13T00:06:22;21.70;48.00
19847;DHT22;10084;50.518;8.588;2023-07-13T00:08:48;21.70;48.00
19847;DHT22;10084;50.518;8.588;2023-07-13T00:11:15;21.70;48.00
19847;DHT22;10084;50.518;8.588;2023-07-13T00:13:41;21.70;48.00
19847;DHT22;10084;50.518;8.588;2023-07-13T00:16:09;21.70;48.00
19847;DHT22;10084;50.518;8.588;2023-07-13T00:18:35;21.70;48.00
19847;DHT22;10084;50.518;8.588;2023-07-13T00:21:01;21.70;48.10
19847;DHT22;10084;50.518;8.588;2023-07-13T00:23:32;21.70;48.10
19847;DHT22;10084;50.518;8.588;2023-07-13T00:26:00;21.70;48.20
19847;DHT22;10084;50.518;8.588;2023-07-13T00:28:26;21.70;48.30
19847;DHT22;10084;50.518;8.588;2023-07-13T00:30:52;21.70;48.30
19847;DHT22;10084;50.518;8.588;2023-07-13T00:33:17;21.70;48.40
19847;DHT22;10084;50.518;8.588;2023-07-13T00:35:43;21.60;48.40
19847;DHT22;10084;50.518;8.588;2023-07-13T00:38:09;21.70;48.50
19847;DHT22;10084;50.518;8.588;2023-07-13T00:40:35;21.60;48.40
19847;DHT22;10084;50.518;8.588;2023-07-13T00:43:01;21.60;48.40
19847;DHT22;10084;50.518;8.588;2023-07-13T00:47:54;21.60;48.50
19847;DHT22;10084;50.518;8.588;2023-07-13T00:50:22;21.60;48.60
19847;DHT22;10084;50.518;8.588;2023-07-13T00:52:50;21.50;48.60
19847;DHT22;10084;50.518;8.588;2023-07-13T00:55:17;21.50;48.70
19847;DHT22;10084;50.518;8.588;2023-07-13T00:57:44;21.50;48.70
19847;DHT22;10084;50.518;8.588;2023-07-13T01:00:10;21.50;48.70
19847;DHT22;10084;50.518;8.588;2023-07-13T01:02:40;21.50;48.80
19847;DHT22;10084;50.518;8.588;2023-07-13T01:07:36;21.40;48.90
19847;DHT22;10084;50.518;8.588;2023-07-13T01:10:03;21.40;48.90
19847;DHT22;10084;50.518;8.588;2023-07-13T01:12:29;21.40;49.00
19847;DHT22;10084;50.518;8.588;2023-07-13T01:15:00;21.30;49.00
19847;DHT22;10084;50.518;8.588;2023-07-13T01:17:26;21.30;49.00
19847;DHT22;10084;50.518;8.588;2023-07-13T01:19:53;21.30;49.10
19847;DHT22;10084;50.518;8.588;2023-07-13T01:22:20;21.30;49.20
19847;DHT22;10084;50.518;8.588;2023-07-13T01:24:51;21.30;49.20
19847;DHT22;10084;50.518;8.588;2023-07-13T01:27:21;21.30;49.30
19847;DHT22;10084;50.518;8.588;2023-07-13T01:29:49;21.20;49.40
19847;DHT22;10084;50.518;8.588;2023-07-13T01:32:17;21.20;49.50
19847;DHT22;10084;50.518;8.588;2023-07-13T01:34:49;21.10;49.60
19847;DHT22;10084;50.518;8.588;2023-07-13T01:37:16;21.10;49.70
19847;DHT22;10084;50.518;8.588;2023-07-13T01:39:42;21.10;49.80
19847;DHT22;10084;50.518;8.588;2023-07-13T01:42:08;21.00;49.80
19847;DHT22;10084;50.518;8.588;2023-07-13T01:44:34;20.90;49.90
19847;DHT22;10084;50.518;8.588;2023-07-13T01:47:01;20.90;50.00
19847;DHT22;10084;50.518;8.588;2023-07-13T01:49:26;20.80;50.00
19847;DHT22;10084;50.518;8.588;2023-07-13T01:51:52;20.80;50.20
19847;DHT22;10084;50.518;8.588;2023-07-13T01:54:18;20.70;50.20
19847;DHT22;10084;50.518;8.588;2023-07-13T01:56:43;20.70;50.30
19847;DHT22;10084;50.518;8.588;2023-07-13T01:59:09;20.70;50.30
19847;DHT22;10084;50.518;8.588;2023-07-13T02:01:35;20.60;50.40
19847;DHT22;10084;50.518;8.588;2023-07-13T02:04:02;20.50;50.30
19847;DHT22;10084;50.518;8.588;2023-07-13T02:06:32;20.50;50.50
19847;DHT22;10084;50.518;8.588;2023-07-13T02:08:58;20.50;50.60
19847;DHT22;10084;50.518;8.588;2023-07-13T02:11:24;20.40;50.70
19847;DHT22;10084;50.518;8.588;2023-07-13T02:13:51;20.40;50.70
19847;DHT22;10084;50.518;8.588;2023-07-13T02:16:17;20.30;50.70
19847;DHT22;10084;50.518;8.588;2023-07-13T02:18:43;20.30;50.80
19847;DHT22;10084;50.518;8.588;2023-07-13T02:21:08;20.30;50.90
19847;DHT22;10084;50.518;8.588;2023-07-13T02:23:34;20.20;50.90
19847;DHT22;10084;50.518;8.588;2023-07-13T02:26:01;20.20;51.00
19847;DHT22;10084;50.518;8.588;2023-07-13T02:28:28;20.20;51.10
19847;DHT22;10084;50.518;8.588;2023-07-13T02:30:53;20.10;51.10
19847;DHT22;10084;50.518;8.588;2023-07-13T02:33:19;20.10;51.10
19847;DHT22;10084;50.518;8.588;2023-07-13T02:35:47;20.10;51.10
19847;DHT22;10084;50.518;8.588;2023-07-13T02:38:13;20.10;51.20
19847;DHT22;10084;50.518;8.588;2023-07-13T02:40:39;20.00;51.20
19847;DHT22;10084;50.518;8.588;2023-07-13T02:43:05;20.00;51.20
19847;DHT22;10084;50.518;8.588;2023-07-13T02:45:31;20.00;51.30
19847;DHT22;10084;50.518;8.588;2023-07-13T02:47:56;20.00;51.30
19847;DHT22;10084;50.518;8.588;2023-07-13T02:50:23;19.90;51.40
19847;DHT22;10084;50.518;8.588;2023-07-13T02:52:48;19.90;52.10
19847;DHT22;10084;50.518;8.588;2023-07-13T02:55:14;19.90;51.60
19847;DHT22;10084;50.518;8.588;2023-07-13T02:57:40;19.80;51.50
19847;DHT22;10084;50.518;8.588;2023-07-13T03:00:06;19.80;51.60
19847;DHT22;10084;50.518;8.588;2023-07-13T03:02:34;19.80;51.60
19847;DHT22;10084;50.518;8.588;2023-07-13T03:05:00;19.70;51.70
19847;DHT22;10084;50.518;8.588;2023-07-13T03:07:29;19.70;51.70
19847;DHT22;10084;50.518;8.588;2023-07-13T03:09:56;19.70;51.80
19847;DHT22;10084;50.518;8.588;2023-07-13T03:12:25;19.60;51.80
19847;DHT22;10084;50.518;8.588;2023-07-13T03:14:51;19.60;51.90
19847;DHT22;10084;50.518;8.588;2023-07-13T03:17:17;19.60;52.00
19847;DHT22;10084;50.518;8.588;2023-07-13T03:19:43;19.50;52.70
19847;DHT22;10084;50.518;8.588;2023-07-13T03:22:10;19.50;52.00
19847;DHT22;10084;50.518;8.588;2023-07-13T03:24:37;19.50;52.10
19847;DHT22;10084;50.518;8.588;2023-07-13T03:27:05;19.50;52.10
19847;DHT22;10084;50.518;8.588;2023-07-13T03:29:34;19.50;52.20
19847;DHT22;10084;50.518;8.588;2023-07-13T03:32:00;19.50;52.10
19847;DHT22;10084;50.518;8.588;2023-07-13T03:34:26;19.50;52.10
19847;DHT22;10084;50.518;8.588;2023-07-13T03:36:54;19.40;52.10
19847;DHT22;10084;50.518;8.588;2023-07-13T03:39:20;19.40;52.90
19847;DHT22;10084;50.518;8.588;2023-07-13T03:41:52;19.40;52.20
19847;DHT22;10084;50.518;8.588;2023-07-13T03:44:18;19.40;52.30
19847;DHT22;10084;50.518;8.588;2023-07-13T03:46:47;19.40;52.30
19847;DHT22;10084;50.518;8.588;2023-07-13T03:49:14;19.40;52.40
19847;DHT22;10084;50.518;8.588;2023-07-13T03:51:39;19.40;52.50
19847;DHT22;10084;50.518;8.588;2023-07-13T03:54:05;19.40;52.40
19847;DHT22;10084;50.518;8.588;2023-07-13T03:56:31;19.40;52.40
19847;DHT22;10084;50.518;8.588;2023-07-13T03:58:59;19.40;52.40
19847;DHT22;10084;50.518;8.588;2023-07-13T04:01:25;19.40;52.40
19847;DHT22;10084;50.518;8.588;2023-07-13T04:03:52;19.40;52.40
19847;DHT22;10084;50.518;8.588;2023-07-13T04:06:23;19.40;52.40
19847;DHT22;10084;50.518;8.588;2023-07-13T04:08:52;19.50;52.40
19847;DHT22;10084;50.518;8.588;2023-07-13T04:11:20;19.50;52.50
19847;DHT22;10084;50.518;8.588;2023-07-13T04:13:47;19.50;52.50
19847;DHT22;10084;50.518;8.588;2023-07-13T04:16:15;19.50;52.50
19847;DHT22;10084;50.518;8.588;2023-07-13T04:18:41;19.50;52.50
19847;DHT22;10084;50.518;8.588;2023-07-13T04:21:07;19.50;52.50
19847;DHT22;10084;50.518;8.588;2023-07-13T04:23:35;19.40;52.60
19847;DHT22;10084;50.518;8.588;2023-07-13T04:26:01;19.40;52.60
19847;DHT22;10084;50.518;8.588;2023-07-13T04:28:26;19.40;52.70
19847;DHT22;10084;50.518;8.588;2023-07-13T04:30:53;19.40;52.70
19847;DHT22;10084;50.518;8.588;2023-07-13T04:33:19;19.40;52.70
19847;DHT22;10084;50.518;8.588;2023-07-13T04:35:49;19.40;52.80
19847;DHT22;10084;50.518;8.588;2023-07-13T04:38:15;19.40;52.90
19847;DHT22;10084;50.518;8.588;2023-07-13T04:40:45;19.40;53.00
19847;DHT22;10084;50.518;8.588;2023-07-13T04:43:10;19.40;53.10
19847;DHT22;10084;50.518;8.588;2023-07-13T04:45:36;19.40;53.10
19847;DHT22;10084;50.518;8.588;2023-07-13T04:48:02;19.40;53.70
19847;DHT22;10084;50.518;8.588;2023-07-13T04:50:28;19.50;53.20
19847;DHT22;10084;50.518;8.588;2023-07-13T04:52:53;19.50;53.10
19847;DHT22;10084;50.518;8.588;2023-07-13T04:55:20;19.50;53.10
19847;DHT22;10084;50.518;8.588;2023-07-13T04:57:46;19.50;53.20
19847;DHT22;10084;50.518;8.588;2023-07-13T05:00:13;19.60;53.20
19847;DHT22;10084;50.518;8.588;2023-07-13T05:02:39;19.60;53.20
19847;DHT22;10084;50.518;8.588;2023-07-13T05:05:06;19.70;53.30
19847;DHT22;10084;50.518;8.588;2023-07-13T05:07:32;19.80;53.30
19847;DHT22;10084;50.518;8.588;2023-07-13T05:09:59;19.90;53.30
19847;DHT22;10084;50.518;8.588;2023-07-13T05:12:26;20.00;53.30
19847;DHT22;10084;50.518;8.588;2023-07-13T05:14:51;20.10;53.20
19847;DHT22;10084;50.518;8.588;2023-07-13T05:17:17;20.30;53.20
19847;DHT22;10084;50.518;8.588;2023-07-13T05:19:43;20.40;53.10
19847;DHT22;10084;50.518;8.588;2023-07-13T05:22:08;20.60;53.00
19847;DHT22;10084;50.518;8.588;2023-07-13T05:24:34;20.70;52.90
19847;DHT22;10084;50.518;8.588;2023-07-13T05:27:00;20.90;52.80
19847;DHT22;10084;50.518;8.588;2023-07-13T05:29:26;21.10;52.80
19847;DHT22;10084;50.518;8.588;2023-07-13T05:31:51;21.20;52.60
19847;DHT22;10084;50.518;8.588;2023-07-13T05:34:17;21.40;52.70
19847;DHT22;10084;50.518;8.588;2023-07-13T05:36:43;21.70;52.40
19847;DHT22;10084;50.518;8.588;2023-07-13T05:39:09;22.00;52.00
19847;DHT22;10084;50.518;8.588;2023-07-13T05:41:36;22.20;51.80
19847;DHT22;10084;50.518;8.588;2023-07-13T05:44:01;22.50;51.70
19847;DHT22;10084;50.518;8.588;2023-07-13T05:46:27;22.70;51.70
19847;DHT22;10084;50.518;8.588;2023-07-13T05:48:53;23.10;51.80
19847;DHT22;10084;50.518;8.588;2023-07-13T05:51:18;23.40;51.90
19847;DHT22;10084;50.518;8.588;2023-07-13T05:53:44;24.00;52.00
19847;DHT22;10084;50.518;8.588;2023-07-13T05:56:10;25.20;51.20
19847;DHT22;10084;50.518;8.588;2023-07-13T05:58:36;26.90;49.40
19847;DHT22;10084;50.518;8.588;2023-07-13T06:01:08;28.70;47.40
19847;DHT22;10084;50.518;8.588;2023-07-13T06:03:35;30.50;44.60
19847;DHT22;10084;50.518;8.588;2023-07-13T06:06:01;31.90;43.10
19847;DHT22;10084;50.518;8.588;2023-07-13T06:08:27;33.10;41.70
19847;DHT22;10084;50.518;8.588;2023-07-13T06:10:53;34.20;40.60
19847;DHT22;10084;50.518;8.588;2023-07-13T06:13:19;35.10;39.70
19847;DHT22;10084;50.518;8.588;2023-07-13T06:15:49;35.80;38.70
19847;DHT22;10084;50.518;8.588;2023-07-13T06:18:15;36.60;37.50
19847;DHT22;10084;50.518;8.588;2023-07-13T06:20:41;37.40;36.80
19847;DHT22;10084;50.518;8.588;2023-07-13T06:23:06;38.20;35.90
19847;DHT22;10084;50.518;8.588;2023-07-13T06:25:32;38.80;35.00
19847;DHT22;10084;50.518;8.588;2023-07-13T06:27:58;39.40;34.10
19847;DHT22;10084;50.518;8.588;2023-07-13T06:30:23;39.90;33.20
19847;DHT22;10084;50.518;8.588;2023-07-13T06:32:49;40.50;32.40
19847;DHT22;10084;50.518;8.588;2023-07-13T06:35:15;41.00;31.60
19847;DHT22;10084;50.518;8.588;2023-07-13T06:37:41;41.30;30.80
19847;DHT22;10084;50.518;8.588;2023-07-13T06:40:07;41.40;30.00
19847;DHT22;10084;50.518;8.588;2023-07-13T06:42:33;41.50;29.70
19847;DHT22;10084;50.518;8.588;2023-07-13T06:44:59;41.70;29.30
19847;DHT22;10084;50.518;8.588;2023-07-13T06:47:24;42.00;28.80
19847;DHT22;10084;50.518;8.588;2023-07-13T06:49:50;42.30;28.40
19847;DHT22;10084;50.518;8.588;2023-07-13T06:52:16;42.60;28.00
19847;DHT22;10084;50.518;8.588;2023-07-13T06:54:41;43.00;27.60
19847;DHT22;10084;50.518;8.588;2023-07-13T06:57:07;43.30;27.10
19847;DHT22;10084;50.518;8.588;2023-07-13T06:59:33;43.60;26.70
19847;DHT22;10084;50.518;8.588;2023-07-13T07:01:58;43.80;26.20
19847;DHT22;10084;50.518;8.588;2023-07-13T07:04:24;44.00;25.80
19847;DHT22;10084;50.518;8.588;2023-07-13T07:06:50;44.30;25.50
19847;DHT22;10084;50.518;8.588;2023-07-13T07:09:15;44.50;25.10
19847;DHT22;10084;50.518;8.588;2023-07-13T07:11:42;44.60;24.80
19847;DHT22;10084;50.518;8.588;2023-07-13T07:14:08;44.60;24.50
19847;DHT22;10084;50.518;8.588;2023-07-13T07:16:33;44.80;24.30
19847;DHT22;10084;50.518;8.588;2023-07-13T07:18:59;45.10;24.10
19847;DHT22;10084;50.518;8.588;2023-07-13T07:21:25;45.40;23.80
19847;DHT22;10084;50.518;8.588;2023-07-13T07:23:52;45.60;23.50
19847;DHT22;10084;50.518;8.588;2023-07-13T07:26:17;45.80;23.20
19847;DHT22;10084;50.518;8.588;2023-07-13T07:28:43;45.90;23.00
19847;DHT22;10084;50.518;8.588;2023-07-13T07:31:09;45.70;22.60
19847;DHT22;10084;50.518;8.588;2023-07-13T07:33:35;45.10;22.50
19847;DHT22;10084;50.518;8.588;2023-07-13T07:36:01;44.70;22.60
19847;DHT22;10084;50.518;8.588;2023-07-13T07:38:27;44.70;22.60
19847;DHT22;10084;50.518;8.588;2023-07-13T07:40:53;44.70;22.50
19847;DHT22;10084;50.518;8.588;2023-07-13T07:43:19;44.50;22.30
19847;DHT22;10084;50.518;8.588;2023-07-13T07:45:45;44.40;22.30
19847;DHT22;10084;50.518;8.588;2023-07-13T07:48:11;44.30;22.20
19847;DHT22;10084;50.518;8.588;2023-07-13T07:50:37;43.70;21.90
19847;DHT22;10084;50.518;8.588;2023-07-13T07:53:05;42.40;22.00
19847;DHT22;10084;50.518;8.588;2023-07-13T07:55:34;40.80;22.30
19847;DHT22;10084;50.518;8.588;2023-07-13T07:58:01;39.20;22.80
19847;DHT22;10084;50.518;8.588;2023-07-13T08:00:26;37.90;23.40
19847;DHT22;10084;50.518;8.588;2023-07-13T08:02:54;36.90;23.90
19847;DHT22;10084;50.518;8.588;2023-07-13T08:05:20;35.90;24.30
19847;DHT22;10084;50.518;8.588;2023-07-13T08:07:46;35.10;24.70
19847;DHT22;10084;50.518;8.588;2023-07-13T08:10:11;34.40;25.20
19847;DHT22;10084;50.518;8.588;2023-07-13T08:12:38;33.80;25.60
19847;DHT22;10084;50.518;8.588;2023-07-13T08:15:06;33.10;25.90
19847;DHT22;10084;50.518;8.588;2023-07-13T08:17:32;32.60;26.50
19847;DHT22;10084;50.518;8.588;2023-07-13T08:19:57;32.10;26.70
19847;DHT22;10084;50.518;8.588;2023-07-13T08:22:23;31.60;27.00
19847;DHT22;10084;50.518;8.588;2023-07-13T08:24:49;31.20;27.30
19847;DHT22;10084;50.518;8.588;2023-07-13T08:27:22;30.80;27.70
19847;DHT22;10084;50.518;8.588;2023-07-13T08:29:49;30.40;28.00
19847;DHT22;10084;50.518;8.588;2023-07-13T08:32:15;30.00;28.30
19847;DHT22;10084;50.518;8.588;2023-07-13T08:34:41;29.70;29.10
19847;DHT22;10084;50.518;8.588;2023-07-13T08:37:08;29.40;28.80
19847;DHT22;10084;50.518;8.588;2023-07-13T08:39:34;29.20;29.00
19847;DHT22;10084;50.518;8.588;2023-07-13T08:42:29;28.90;29.30
19847;DHT22;10084;50.518;8.588;2023-07-13T08:47:47;28.50;29.90
19847;DHT22;10084;50.518;8.588;2023-07-13T08:50:17;28.40;30.00
19847;DHT22;10084;50.518;8.588;2023-07-13T08:52:44;28.30;30.10
19847;DHT22;10084;50.518;8.588;2023-07-13T08:55:20;28.30;30.20
19847;DHT22;10084;50.518;8.588;2023-07-13T08:57:54;28.30;30.50
19847;DHT22;10084;50.518;8.588;2023-07-13T09:00:22;28.40;30.60
19847;DHT22;10084;50.518;8.588;2023-07-13T09:02:57;28.50;30.60
19847;DHT22;10084;50.518;8.588;2023-07-13T09:05:33;28.60;30.80
19847;DHT22;10084;50.518;8.588;2023-07-13T09:10:36;28.60;30.80
19847;DHT22;10084;50.518;8.588;2023-07-13T09:13:42;28.60;30.80
19847;DHT22;10084;50.518;8.588;2023-07-13T09:16:10;28.50;31.00
19847;DHT22;10084;50.518;8.588;2023-07-13T09:19:01;28.50;31.00
19847;DHT22;10084;50.518;8.588;2023-07-13T09:21:38;28.50;31.20
19847;DHT22;10084;50.518;8.588;2023-07-13T09:24:38;28.50;31.30
19847;DHT22;10084;50.518;8.588;2023-07-13T09:27:33;28.60;31.30
19847;DHT22;10084;50.518;8.588;2023-07-13T09:30:23;28.70;31.40
19847;DHT22;10084;50.518;8.588;2023-07-13T09:32:52;28.70;31.40
19847;DHT22;10084;50.518;8.588;2023-07-13T09:35:27;28.70;31.30
19847;DHT22;10084;50.518;8.588;2023-07-13T09:38:19;28.60;31.40
19847;DHT22;10084;50.518;8.588;2023-07-13T09:41:04;28.40;31.50
19847;DHT22;10084;50.518;8.588;2023-07-13T09:43:34;28.30;31.60
19847;DHT22;10084;50.518;8.588;2023-07-13T09:46:00;28.20;31.70
19847;DHT22;10084;50.518;8.588;2023-07-13T09:48:34;28.20;31.80
19847;DHT22;10084;50.518;8.588;2023-07-13T09:51:12;28.30;32.00
19847;DHT22;10084;50.518;8.588;2023-07-13T09:53:41;28.30;32.00
19847;DHT22;10084;50.518;8.588;2023-07-13T09:56:22;28.30;32.00
19847;DHT22;10084;50.518;8.588;2023-07-13T09:58:49;28.30;32.10
19847;DHT22;10084;50.518;8.588;2023-07-13T10:01:14;28.30;32.10
19847;DHT22;10084;50.518;8.588;2023-07-13T10:03:53;28.30;32.10
19847;DHT22;10084;50.518;8.588;2023-07-13T10:06:21;28.40;32.10
19847;DHT22;10084;50.518;8.588;2023-07-13T10:08:49;28.40;32.00
19847;DHT22;10084;50.518;8.588;2023-07-13T10:11:23;28.40;32.10
19847;DHT22;10084;50.518;8.588;2023-07-13T10:13:55;28.40;32.20
19847;DHT22;10084;50.518;8.588;2023-07-13T10:16:24;28.30;32.00
19847;DHT22;10084;50.518;8.588;2023-07-13T10:22:24;28.30;32.40
19847;DHT22;10084;50.518;8.588;2023-07-13T10:24:52;28.30;32.20
19847;DHT22;10084;50.518;8.588;2023-07-13T10:27:56;28.30;32.20
19847;DHT22;10084;50.518;8.588;2023-07-13T10:30:28;28.20;32.40
19847;DHT22;10084;50.518;8.588;2023-07-13T10:32:58;28.30;32.40
19847;DHT22;10084;50.518;8.588;2023-07-13T10:35:26;28.30;32.40
19847;DHT22;10084;50.518;8.588;2023-07-13T10:38:10;28.30;32.40
19847;DHT22;10084;50.518;8.588;2023-07-13T10:40:43;28.20;32.60
19847;DHT22;10084;50.518;8.588;2023-07-13T10:43:25;28.20;32.60
19847;DHT22;10084;50.518;8.588;2023-07-13T10:45:53;28.10;32.70
19847;DHT22;10084;50.518;8.588;2023-07-13T10:48:21;28.10;32.70
19847;DHT22;10084;50.518;8.588;2023-07-13T10:50:50;28.00;32.80
19847;DHT22;10084;50.518;8.588;2023-07-13T10:53:33;28.00;32.90
19847;DHT22;10084;50.518;8.588;2023-07-13T10:56:46;28.00;33.10
19847;DHT22;10084;50.518;8.588;2023-07-13T11:01:56;28.10;33.20
19847;DHT22;10084;50.518;8.588;2023-07-13T11:04:23;28.10;33.20
19847;DHT22;10084;50.518;8.588;2023-07-13T11:06:59;28.20;33.30
19847;DHT22;10084;50.518;8.588;2023-07-13T11:09:40;28.20;33.30
19847;DHT22;10084;50.518;8.588;2023-07-13T11:17:47;28.40;33.20
19847;DHT22;10084;50.518;8.588;2023-07-13T11:22:46;28.20;33.10
19847;DHT22;10084;50.518;8.588;2023-07-13T11:28:13;28.10;33.40
19847;DHT22;10084;50.518;8.588;2023-07-13T11:30:41;28.00;33.50
19847;DHT22;10084;50.518;8.588;2023-07-13T11:36:06;27.80;33.60
19847;DHT22;10084;50.518;8.588;2023-07-13T11:38:55;27.80;33.70
19847;DHT22;10084;50.518;8.588;2023-07-13T11:41:27;27.70;33.60
19847;DHT22;10084;50.518;8.588;2023-07-13T11:43:55;27.60;33.60
19847;DHT22;10084;50.518;8.588;2023-07-13T11:46:24;27.60;33.60
19847;DHT22;10084;50.518;8.588;2023-07-13T11:48:51;27.60;33.70
19847;DHT22;10084;50.518;8.588;2023-07-13T11:51:25;27.60;33.70
19847;DHT22;10084;50.518;8.588;2023-07-13T11:53:54;27.50;33.60
19847;DHT22;10084;50.518;8.588;2023-07-13T11:56:21;27.50;33.60
19847;DHT22;10084;50.518;8.588;2023-07-13T11:58:52;27.50;33.50
19847;DHT22;10084;50.518;8.588;2023-07-13T12:01:24;27.50;33.50
19847;DHT22;10084;50.518;8.588;2023-07-13T12:03:52;27.50;33.60
19847;DHT22;10084;50.518;8.588;2023-07-13T12:06:37;27.50;33.60
19847;DHT22;10084;50.518;8.588;2023-07-13T12:09:12;27.50;33.70
19847;DHT22;10084;50.518;8.588;2023-07-13T12:11:41;27.60;33.80
19847;DHT22;10084;50.518;8.588;2023-07-13T12:14:18;27.60;33.80
19847;DHT22;10084;50.518;8.588;2023-07-13T12:16:46;27.60;33.80
19847;DHT22;10084;50.518;8.588;2023-07-13T12:19:22;27.60;33.80
19847;DHT22;10084;50.518;8.588;2023-07-13T12:21:48;27.50;33.80
19847;DHT22;10084;50.518;8.588;2023-07-13T12:24:18;27.50;33.90
19847;DHT22;10084;50.518;8.588;2023-07-13T12:26:44;27.40;33.90
19847;DHT22;10084;50.518;8.588;2023-07-13T12:29:16;27.40;33.90
19847;DHT22;10084;50.518;8.588;2023-07-13T12:31:45;27.40;34.00
19847;DHT22;10084;50.518;8.588;2023-07-13T12:34:14;27.40;34.00
19847;DHT22;10084;50.518;8.588;2023-07-13T12:36:55;27.40;33.90
19847;DHT22;10084;50.518;8.588;2023-07-13T12:39:35;27.30;33.80
19847;DHT22;10084;50.518;8.588;2023-07-13T12:42:33;27.30;33.80
19847;DHT22;10084;50.518;8.588;2023-07-13T12:45:11;27.30;33.90
19847;DHT22;10084;50.518;8.588;2023-07-13T12:47:43;27.30;33.80
19847;DHT22;10084;50.518;8.588;2023-07-13T12:50:18;27.30;33.80
19847;DHT22;10084;50.518;8.588;2023-07-13T12:52:51;27.20;33.70
19847;DHT22;10084;50.518;8.588;2023-07-13T12:55:19;27.20;33.70
19847;DHT22;10084;50.518;8.588;2023-07-13T12:57:53;27.20;33.70
19847;DHT22;10084;50.518;8.588;2023-07-13T13:00:30;27.20;33.70
19847;DHT22;10084;50.518;8.588;2023-07-13T13:03:02;27.20;33.60
19847;DHT22;10084;50.518;8.588;2023-07-13T13:05:30;27.20;33.60
19847;DHT22;10084;50.518;8.588;2023-07-13T13:07:56;27.10;33.70
19847;DHT22;10084;50.518;8.588;2023-07-13T13:10:22;27.00;33.80
19847;DHT22;10084;50.518;8.588;2023-07-13T13:12:50;27.00;34.00
19847;DHT22;10084;50.518;8.588;2023-07-13T13:15:15;27.10;34.30
19847;DHT22;10084;50.518;8.588;2023-07-13T13:17:42;27.10;34.30
19847;DHT22;10084;50.518;8.588;2023-07-13T13:20:15;27.20;34.40
19847;DHT22;10084;50.518;8.588;2023-07-13T13:22:41;27.20;34.30
19847;DHT22;10084;50.518;8.588;2023-07-13T13:25:10;27.20;34.30
19847;DHT22;10084;50.518;8.588;2023-07-13T13:27:36;27.20;34.30
19847;DHT22;10084;50.518;8.588;2023-07-13T13:30:02;27.20;34.30
19847;DHT22;10084;50.518;8.588;2023-07-13T13:32:28;27.20;35.10
19847;DHT22;10084;50.518;8.588;2023-07-13T13:34:54;27.10;34.40
19847;DHT22;10084;50.518;8.588;2023-07-13T13:37:22;27.10;34.50
19847;DHT22;10084;50.518;8.588;2023-07-13T13:39:49;27.10;34.70
19847;DHT22;10084;50.518;8.588;2023-07-13T13:42:15;27.10;34.70
19847;DHT22;10084;50.518;8.588;2023-07-13T13:44:40;27.10;34.70
19847;DHT22;10084;50.518;8.588;2023-07-13T13:47:18;27.10;34.70
19847;DHT22;10084;50.518;8.588;2023-07-13T13:49:45;27.00;34.60
19847;DHT22;10084;50.518;8.588;2023-07-13T13:52:12;26.90;34.70
19847;DHT22;10084;50.518;8.588;2023-07-13T13:54:38;26.90;34.80
19847;DHT22;10084;50.518;8.588;2023-07-13T13:57:04;26.90;34.90
19847;DHT22;10084;50.518;8.588;2023-07-13T13:59:30;26.90;35.00
19847;DHT22;10084;50.518;8.588;2023-07-13T14:01:58;26.90;35.00
19847;DHT22;10084;50.518;8.588;2023-07-13T14:04:25;26.90;35.10
19847;DHT22;10084;50.518;8.588;2023-07-13T14:06:51;26.90;35.00
19847;DHT22;10084;50.518;8.588;2023-07-13T14:09:19;26.90;35.10
19847;DHT22;10084;50.518;8.588;2023-07-13T14:11:46;26.90;35.10
19847;DHT22;10084;50.518;8.588;2023-07-13T14:14:20;27.00;35.10
19847;DHT22;10084;50.518;8.588;2023-07-13T14:16:47;27.00;35.00
19847;DHT22;10084;50.518;8.588;2023-07-13T14:19:19;27.10;35.00
19847;DHT22;10084;50.518;8.588;2023-07-13T14:21:44;27.20;35.00
19847;DHT22;10084;50.518;8.588;2023-07-13T14:36:29;27.30;34.30
19847;DHT22;10084;50.518;8.588;2023-07-13T14:39:00;27.80;33.80
19847;DHT22;10084;50.518;8.588;2023-07-13T14:41:27;27.90;33.70
19847;DHT22;10084;50.518;8.588;2023-07-13T14:43:53;27.90;33.70
19847;DHT22;10084;50.518;8.588;2023-07-13T14:46:31;27.80;33.80
19847;DHT22;10084;50.518;8.588;2023-07-13T14:49:03;27.80;33.90
19847;DHT22;10084;50.518;8.588;2023-07-13T14:51:31;27.80;34.00
19847;DHT22;10084;50.518;8.588;2023-07-13T14:54:01;27.70;33.90
19847;DHT22;10084;50.518;8.588;2023-07-13T14:56:27;27.70;34.00
19847;DHT22;10084;50.518;8.588;2023-07-13T14:58:53;27.70;34.00
19847;DHT22;10084;50.518;8.588;2023-07-13T15:01:19;27.60;34.00
19847;DHT22;10084;50.518;8.588;2023-07-13T15:03:48;27.60;34.10
19847;DHT22;10084;50.518;8.588;2023-07-13T15:06:16;27.60;34.20
19847;DHT22;10084;50.518;8.588;2023-07-13T15:08:41;27.50;34.20
19847;DHT22;10084;50.518;8.588;2023-07-13T15:11:09;27.40;34.20
19847;DHT22;10084;50.518;8.588;2023-07-13T15:13:38;27.40;34.30
19847;DHT22;10084;50.518;8.588;2023-07-13T15:16:05;27.40;34.30
19847;DHT22;10084;50.518;8.588;2023-07-13T15:18:35;27.40;34.30
19847;DHT22;10084;50.518;8.588;2023-07-13T15:21:09;27.30;34.40
19847;DHT22;10084;50.518;8.588;2023-07-13T15:23:36;27.30;34.40
19847;DHT22;10084;50.518;8.588;2023-07-13T15:26:02;27.30;34.50
19847;DHT22;10084;50.518;8.588;2023-07-13T15:28:29;27.30;34.40
19847;DHT22;10084;50.518;8.588;2023-07-13T15:30:54;27.30;34.40
19847;DHT22;10084;50.518;8.588;2023-07-13T15:33:29;27.30;34.50
19847;DHT22;10084;50.518;8.588;2023-07-13T15:35:55;27.20;34.50
19847;DHT22;10084;50.518;8.588;2023-07-13T15:38:29;27.20;34.60
19847;DHT22;10084;50.518;8.588;2023-07-13T15:40:56;27.20;34.60
19847;DHT22;10084;50.518;8.588;2023-07-13T15:43:22;27.20;34.60
19847;DHT22;10084;50.518;8.588;2023-07-13T15:45:49;27.10;34.60
19847;DHT22;10084;50.518;8.588;2023-07-13T15:50:46;27.10;34.60
19847;DHT22;10084;50.518;8.588;2023-07-13T15:53:17;27.00;34.50
19847;DHT22;10084;50.518;8.588;2023-07-13T15:55:44;27.00;34.50
19847;DHT22;10084;50.518;8.588;2023-07-13T15:58:12;27.00;34.50
19847;DHT22;10084;50.518;8.588;2023-07-13T16:00:40;26.90;34.50
19847;DHT22;10084;50.518;8.588;2023-07-13T16:03:06;26.90;34.60
19847;DHT22;10084;50.518;8.588;2023-07-13T16:05:31;26.80;34.60
19847;DHT22;10084;50.518;8.588;2023-07-13T16:07:57;26.70;34.60
19847;DHT22;10084;50.518;8.588;2023-07-13T16:10:34;26.70;34.70
19847;DHT22;10084;50.518;8.588;2023-07-13T16:13:03;26.60;34.70
19847;DHT22;10084;50.518;8.588;2023-07-13T16:15:30;26.60;34.80
19847;DHT22;10084;50.518;8.588;2023-07-13T16:17:56;26.50;34.80
19847;DHT22;10084;50.518;8.588;2023-07-13T16:20:23;26.40;34.90
19847;DHT22;10084;50.518;8.588;2023-07-13T16:22:52;26.40;35.00
19847;DHT22;10084;50.518;8.588;2023-07-13T16:25:24;26.30;35.00